createdAt,value
2022-12-09T00:00:39.618Z,94308.94
2022-12-09T00:03:33.858Z,94315.63
2022-12-09T00:06:29.590Z,94311.44
2022-12-09T00:09:03.797Z,94312.31
2022-12-09T00:11:50.769Z,94306.41
2022-12-09T00:14:23.626Z,94312.31
2022-12-09T00:17:10.882Z,94308.09
2022-12-09T00:19:43.634Z,94303.91
2022-12-09T00:22:32.689Z,94303.91
2022-12-09T00:25:05.673Z,94304.72
2022-12-09T00:27:52.688Z,94298.84
2022-12-09T00:30:25.696Z,94297.97
2022-12-09T00:33:12.889Z,94302.94
2022-12-09T00:35:52.612Z,94309.66
2022-12-09T00:38:46.600Z,94317.22
2022-12-09T00:41:41.545Z,94313.88
2022-12-09T00:44:21.616Z,94312.19
2022-12-09T00:47:01.661Z,94317.19
2022-12-09T00:49:41.581Z,94328.91
2022-12-09T00:52:21.568Z,94319.72
2022-12-09T00:54:54.700Z,94317.16
2022-12-09T00:57:41.630Z,94312.97
2022-12-09T01:00:15.900Z,94318.78
2022-12-09T01:03:02.704Z,94308.75
2022-12-09T01:05:36.801Z,94311.22
2022-12-09T01:08:23.826Z,94309.53
2022-12-09T01:10:56.955Z,94301.16
2022-12-09T01:13:43.816Z,94304.44
2022-12-09T01:16:29.734Z,94291.84
2022-12-09T01:19:26.584Z,94290.94
2022-12-09T01:22:13.819Z,94293.41
2022-12-09T01:24:54.616Z,94295.84
2022-12-09T01:27:49.583Z,94303.31
2022-12-09T01:30:36.621Z,94298.25
2022-12-09T01:33:09.969Z,94297.41
2022-12-09T01:35:56.814Z,94296.47
2022-12-09T01:38:36.594Z,94304.03
2022-12-09T01:41:24.573Z,94312.38
2022-12-09T01:44:16.982Z,94299.00
2022-12-09T01:47:05.689Z,94293.97
2022-12-09T01:49:46.557Z,94293.09
2022-12-09T01:52:33.832Z,94296.44
2022-12-09T01:55:06.909Z,94294.81
2022-12-09T01:57:53.635Z,94294.88
2022-12-09T02:00:27.633Z,94289.91
2022-12-09T02:03:14.858Z,94290.78
2022-12-09T02:05:49.889Z,94290.84
2022-12-09T02:08:36.640Z,94310.97
2022-12-09T02:11:29.035Z,94301.78
2022-12-09T02:14:42.651Z,94302.66
2022-12-09T02:17:41.961Z,94290.13
2022-12-09T02:20:46.859Z,94290.13
2022-12-09T02:23:37.928Z,94293.50
2022-12-09T02:26:53.592Z,94290.16
2022-12-09T02:30:05.088Z,94277.56
2022-12-09T02:33:22.822Z,94280.06
2022-12-09T02:36:17.602Z,94266.66
2022-12-09T02:38:57.814Z,94274.19
2022-12-09T02:41:58.936Z,94271.69
2022-12-09T02:44:47.589Z,94268.34
2022-12-09T02:47:31.690Z,94272.53
2022-12-09T02:50:28.620Z,94279.28
2022-12-09T02:53:19.698Z,94278.47
2022-12-09T02:55:55.704Z,94278.50
2022-12-09T02:58:42.790Z,94286.06
2022-12-09T03:01:37.677Z,94274.38
2022-12-09T03:04:30.800Z,94276.00
2022-12-09T03:07:17.787Z,94276.88
2022-12-09T03:10:15.861Z,94283.59
2022-12-09T03:12:56.683Z,94278.56
2022-12-09T03:15:48.763Z,94281.94
2022-12-09T03:18:25.704Z,94284.44
2022-12-09T03:21:13.972Z,94281.13
2022-12-09T03:23:51.287Z,94273.63
2022-12-09T03:26:40.611Z,94271.94
2022-12-09T03:29:20.993Z,94270.25
2022-12-09T03:32:07.715Z,94274.47
2022-12-09T03:34:52.738Z,94276.13
2022-12-09T03:37:40.914Z,94274.47
2022-12-09T03:40:25.309Z,94279.47
2022-12-09T03:43:20.927Z,94268.56
2022-12-09T03:45:54.795Z,94263.50
2022-12-09T03:48:42.789Z,94269.31
2022-12-09T03:51:22.791Z,94272.63
2022-12-09T03:54:34.744Z,94267.50
2022-12-09T03:57:08.134Z,94269.09
2022-12-09T04:00:00.758Z,94269.06
2022-12-09T04:02:41.798Z,94270.66
2022-12-09T04:05:35.778Z,94268.91
2022-12-09T04:08:22.712Z,94284.72
2022-12-09T04:10:55.799Z,94279.63
2022-12-09T04:13:42.628Z,94275.41
2022-12-09T04:16:22.850Z,94271.97
2022-12-09T04:19:09.687Z,94259.34
2022-12-09T04:21:49.669Z,94263.47
2022-12-09T04:24:36.909Z,94258.38
2022-12-09T04:27:10.726Z,94249.94
2022-12-09T04:29:58.946Z,94257.41
2022-12-09T04:32:32.045Z,94263.22
2022-12-09T04:35:18.639Z,94272.34
2022-12-09T04:37:51.765Z,94263.91
2022-12-09T04:40:38.654Z,94277.25
2022-12-09T04:43:12.051Z,94278.88
2022-12-09T04:45:58.685Z,94283.78
2022-12-09T04:48:38.701Z,94287.13
2022-12-09T04:51:26.013Z,94282.13
2022-12-09T04:53:59.944Z,94290.47
2022-12-09T04:56:46.830Z,94293.81
2022-12-09T04:59:26.712Z,94293.75
2022-12-09T05:02:13.736Z,94295.41
2022-12-09T05:04:47.929Z,94292.06
2022-12-09T05:07:35.749Z,94294.56
2022-12-09T05:10:16.202Z,94293.69
2022-12-09T05:13:10.877Z,94300.38
2022-12-09T05:16:06.858Z,94302.91
2022-12-09T05:18:56.110Z,94299.53
2022-12-09T05:21:36.938Z,94300.38
2022-12-09T05:24:30.710Z,94297.91
2022-12-09T05:27:19.026Z,94307.09
2022-12-09T05:29:53.153Z,94304.56
2022-12-09T05:32:46.789Z,94302.91
2022-12-09T05:35:52.014Z,94300.44
2022-12-09T05:38:39.838Z,94297.97
2022-12-09T05:41:14.157Z,94301.31
2022-12-09T05:44:00.681Z,94302.22
2022-12-09T05:46:33.877Z,94299.72
2022-12-09T05:49:21.161Z,94302.25
2022-12-09T05:51:54.905Z,94301.44
2022-12-09T05:54:41.777Z,94308.94
2022-12-09T05:57:22.064Z,94309.03
2022-12-09T06:00:15.991Z,94308.25
2022-12-09T06:03:11.227Z,94314.13
2022-12-09T06:06:05.188Z,94304.13
2022-12-09T06:08:59.861Z,94304.16
2022-12-09T06:11:53.660Z,94310.03
2022-12-09T06:14:41.029Z,94311.09
2022-12-09T06:17:21.711Z,94317.50
2022-12-09T06:20:09.096Z,94325.06
2022-12-09T06:22:43.126Z,94321.00
2022-12-09T06:25:29.718Z,94315.91
2022-12-09T06:28:02.923Z,94310.88
2022-12-09T06:30:50.062Z,94318.41
2022-12-09T06:33:53.739Z,94330.13
2022-12-09T06:36:45.769Z,94338.56
2022-12-09T06:39:32.674Z,94333.56
2022-12-09T06:42:06.225Z,94330.25
2022-12-09T06:44:52.878Z,94320.19
2022-12-09T06:47:32.805Z,94317.06
2022-12-09T06:50:27.215Z,94316.97
2022-12-09T06:53:21.080Z,94323.72
2022-12-09T06:56:13.226Z,94328.72
2022-12-09T06:58:49.111Z,94319.44
2022-12-09T07:01:35.869Z,94324.50
2022-12-09T07:04:11.432Z,94315.25
2022-12-09T07:06:59.081Z,94316.16
2022-12-09T07:09:33.232Z,94316.22
2022-12-09T07:12:19.740Z,94304.50
2022-12-09T07:14:52.926Z,94307.00
2022-12-09T07:17:40.006Z,94302.03
2022-12-09T07:20:14.153Z,94295.41
2022-12-09T07:23:01.099Z,94292.97
2022-12-09T07:25:34.935Z,94277.13
2022-12-09T07:28:22.161Z,94284.75
2022-12-09T07:31:03.128Z,94276.44
2022-12-09T07:33:57.482Z,94268.94
2022-12-09T07:36:44.770Z,94264.75
2022-12-09T07:39:21.929Z,94255.56
2022-12-09T07:42:08.858Z,94258.13
2022-12-09T07:44:41.905Z,94264.03
2022-12-09T07:47:29.508Z,94267.38
2022-12-09T07:50:06.553Z,94285.00
2022-12-09T07:52:53.736Z,94288.34
2022-12-09T07:55:26.889Z,94286.66
2022-12-09T07:58:14.135Z,94284.13
2022-12-09T08:00:47.930Z,94282.47
2022-12-09T08:03:35.005Z,94275.84
2022-12-09T08:06:16.173Z,94278.38
2022-12-09T08:09:08.191Z,94278.38
2022-12-09T08:11:42.007Z,94271.66
2022-12-09T08:14:29.783Z,94269.13
2022-12-09T08:17:03.394Z,94266.63
2022-12-09T08:19:50.024Z,94276.69
2022-12-09T08:22:31.157Z,94282.56
2022-12-09T08:25:25.115Z,94282.56
2022-12-09T08:28:18.834Z,94286.75
2022-12-09T08:31:12.839Z,94278.38
2022-12-09T08:34:08.066Z,94279.22
2022-12-09T08:37:02.394Z,94271.69
2022-12-09T08:39:57.155Z,94272.56
2022-12-09T08:42:51.904Z,94275.09
2022-12-09T08:45:50.952Z,94278.44
2022-12-09T08:48:38.109Z,94279.31
2022-12-09T08:51:19.740Z,94269.25
2022-12-09T08:54:14.754Z,94270.13
2022-12-09T08:57:03.095Z,94251.75
2022-12-09T08:59:45.457Z,94257.66
2022-12-09T09:02:40.228Z,94253.47
2022-12-09T09:05:34.189Z,94254.41
2022-12-09T09:08:28.285Z,94244.38
2022-12-09T09:11:23.184Z,94240.19
2022-12-09T09:13:57.118Z,94236.00
2022-12-09T09:16:47.227Z,94231.88
2022-12-09T09:19:25.749Z,94221.03
2022-12-09T09:22:13.164Z,94215.16
2022-12-09T09:24:54.183Z,94208.47
2022-12-09T09:27:47.860Z,94205.16
2022-12-09T09:30:34.849Z,94203.50
2022-12-09T09:33:14.811Z,94190.97
2022-12-09T09:36:10.168Z,94172.50
2022-12-09T09:38:45.296Z,94175.03
2022-12-09T09:41:34.973Z,94168.31
2022-12-09T09:44:08.998Z,94177.53
2022-12-09T09:46:57.364Z,94169.19
2022-12-09T09:50:17.468Z,94169.22
2022-12-09T09:53:04.937Z,94171.75
2022-12-09T09:55:52.863Z,94173.44
2022-12-09T09:58:58.200Z,94168.41
2022-12-09T10:01:52.414Z,94175.09
2022-12-09T10:04:52.114Z,94171.75
2022-12-09T10:07:58.233Z,94168.41
2022-12-09T10:11:02.971Z,94168.44
2022-12-09T10:14:06.164Z,94160.06
2022-12-09T10:17:35.249Z,94155.91
2022-12-09T10:20:28.903Z,94156.75
2022-12-09T10:23:11.095Z,94154.28
2022-12-09T10:26:02.119Z,94150.09
2022-12-09T10:28:49.140Z,94146.75
2022-12-09T10:31:36.000Z,94145.94
2022-12-09T10:34:09.189Z,94142.63
2022-12-09T10:36:55.962Z,94136.75
2022-12-09T10:39:29.180Z,94141.00
2022-12-09T10:42:35.373Z,94135.97
2022-12-09T10:45:14.330Z,94133.47
2022-12-09T10:48:01.142Z,94125.91
2022-12-09T10:50:50.158Z,94128.44
2022-12-09T10:53:38.238Z,94138.53
2022-12-09T10:56:15.525Z,94142.75
2022-12-09T10:59:20.254Z,94144.44
2022-12-09T11:02:06.187Z,94143.66
2022-12-09T11:04:54.123Z,94146.19
2022-12-09T11:07:37.907Z,94145.34
2022-12-09T11:10:51.205Z,94146.19
2022-12-09T11:13:46.172Z,94146.19
2022-12-09T11:16:27.024Z,94139.50
2022-12-09T11:19:27.932Z,94140.34
2022-12-09T11:22:28.108Z,94124.38
2022-12-09T11:25:19.255Z,94122.72
2022-12-09T11:28:18.932Z,94121.03
2022-12-09T11:31:33.505Z,94114.34
2022-12-09T11:34:21.125Z,94121.91
2022-12-09T11:37:08.807Z,94115.16
2022-12-09T11:39:49.777Z,94116.84
2022-12-09T11:42:43.777Z,94120.22
2022-12-09T11:45:43.780Z,94123.56
2022-12-09T11:48:43.687Z,94128.66
2022-12-09T11:51:36.877Z,94132.84
2022-12-09T11:54:54.810Z,94125.28
2022-12-09T11:58:00.798Z,94117.72
2022-12-09T12:00:54.803Z,94115.16
2022-12-09T12:03:49.001Z,94116.03
2022-12-09T12:06:48.801Z,94116.88
2022-12-09T12:10:01.912Z,94114.34
2022-12-09T12:13:23.968Z,94108.47
2022-12-09T12:16:24.814Z,94096.69
2022-12-09T12:19:30.818Z,94095.84
2022-12-09T12:22:36.835Z,94081.56
2022-12-09T12:25:29.933Z,94086.63
2022-12-09T12:28:35.805Z,94081.56
2022-12-09T12:31:28.507Z,94071.47
2022-12-09T12:34:42.810Z,94072.31
2022-12-09T12:37:41.801Z,94068.97
2022-12-09T12:40:27.919Z,94077.34
2022-12-09T12:43:50.804Z,94063.91
2022-12-09T12:46:45.926Z,94053.78
2022-12-09T12:50:04.075Z,94046.22
2022-12-09T12:52:56.392Z,94042.88
2022-12-09T12:56:09.804Z,94047.91
2022-12-09T12:58:57.820Z,94049.63
2022-12-09T13:02:13.821Z,94040.34
2022-12-09T13:05:05.823Z,94044.56
2022-12-09T13:08:01.945Z,94045.38
2022-12-09T13:11:09.819Z,94045.38
2022-12-09T13:14:04.945Z,94046.22
2022-12-09T13:16:42.983Z,94045.41
2022-12-09T13:19:44.871Z,94039.53
2022-12-09T13:22:26.907Z,94045.38
2022-12-09T13:25:21.889Z,94041.19
2022-12-09T13:28:09.969Z,94043.69
2022-12-09T13:31:09.834Z,94038.69
2022-12-09T13:33:57.714Z,94041.19
2022-12-09T13:36:55.808Z,94036.97
2022-12-09T13:39:56.003Z,94031.97
2022-12-09T13:43:02.853Z,94039.53
2022-12-09T13:45:56.947Z,94032.78
2022-12-09T13:48:50.869Z,94028.56
2022-12-09T13:51:27.480Z,94031.97
2022-12-09T13:54:22.864Z,94034.47
2022-12-09T13:57:40.873Z,94040.34
2022-12-09T14:00:34.862Z,94044.56
2022-12-09T14:03:35.902Z,94037.84
2022-12-09T14:06:25.065Z,94029.41
2022-12-09T14:09:46.869Z,94034.47
2022-12-09T14:12:44.266Z,94023.56
2022-12-09T14:15:30.940Z,94024.38
2022-12-09T14:18:14.859Z,94019.34
2022-12-09T14:21:35.720Z,94009.25
2022-12-09T14:24:23.889Z,94015.97
2022-12-09T14:26:59.938Z,94009.28
2022-12-09T14:30:03.024Z,94004.22
2022-12-09T14:32:56.131Z,94006.72
2022-12-09T14:35:50.863Z,93993.31
2022-12-09T14:39:15.663Z,93997.50
2022-12-09T14:42:14.868Z,93984.91
2022-12-09T14:45:26.867Z,93980.69
2022-12-09T14:48:20.859Z,93978.19
2022-12-09T14:51:00.882Z,93979.00
2022-12-09T14:53:54.857Z,93982.38
2022-12-09T14:56:48.897Z,93969.78
2022-12-09T14:59:44.873Z,93972.28
2022-12-09T15:02:36.961Z,93973.16
2022-12-09T15:05:12.069Z,93969.78
2022-12-09T15:07:59.044Z,93961.38
2022-12-09T15:10:44.010Z,93960.53
2022-12-09T15:13:32.924Z,93952.97
2022-12-09T15:16:06.006Z,93945.41
2022-12-09T15:18:53.927Z,93941.22
2022-12-09T15:21:35.928Z,93942.03
2022-12-09T15:24:25.287Z,93940.38
2022-12-09T15:27:07.026Z,93931.13
2022-12-09T15:29:55.914Z,93931.13
2022-12-09T15:32:34.964Z,93929.47
2022-12-09T15:35:35.879Z,93928.59
2022-12-09T15:38:22.923Z,93931.13
2022-12-09T15:41:20.878Z,93921.91
2022-12-09T15:44:21.400Z,93910.97
2022-12-09T15:47:15.900Z,93901.72
2022-12-09T15:49:57.987Z,93901.72
2022-12-09T15:53:06.933Z,93901.72
2022-12-09T15:56:01.975Z,93893.31
2022-12-09T15:58:55.880Z,93900.06
2022-12-09T16:01:34.016Z,93897.53
2022-12-09T16:04:25.889Z,93898.38
2022-12-09T16:07:05.884Z,93901.72
2022-12-09T16:10:15.639Z,93899.22
2022-12-09T16:12:49.974Z,93889.13
2022-12-09T16:16:13.976Z,93879.88
2022-12-09T16:18:56.637Z,93879.91
2022-12-09T16:21:42.929Z,93873.16
2022-12-09T16:24:19.975Z,93872.31
2022-12-09T16:27:10.901Z,93874.84
2022-12-09T16:29:43.969Z,93864.75
2022-12-09T16:32:37.930Z,93866.47
2022-12-09T16:35:24.210Z,93858.06
2022-12-09T16:38:23.933Z,93845.47
2022-12-09T16:41:18.947Z,93851.31
2022-12-09T16:44:06.000Z,93835.34
2022-12-09T16:46:50.959Z,93837.03
2022-12-09T16:49:38.006Z,93831.13
2022-12-09T16:52:11.056Z,93821.06
2022-12-09T16:54:57.983Z,93820.22
2022-12-09T16:57:38.076Z,93821.06
2022-12-09T17:00:32.927Z,93819.41
2022-12-09T17:03:46.956Z,93816.00
2022-12-09T17:06:22.033Z,93819.41
2022-12-09T17:09:08.920Z,93813.50
2022-12-09T17:11:49.413Z,93803.41
2022-12-09T17:14:42.972Z,93791.66
2022-12-09T17:17:30.964Z,93788.28
2022-12-09T17:20:04.012Z,93778.19
2022-12-09T17:22:50.928Z,93772.34
2022-12-09T17:25:31.929Z,93774.00
2022-12-09T17:28:18.973Z,93771.50
2022-12-09T17:30:51.970Z,93760.56
2022-12-09T17:33:45.923Z,93755.53
2022-12-09T17:36:39.939Z,93747.13
2022-12-09T17:39:26.928Z,93742.91
2022-12-09T17:42:15.979Z,93743.78
2022-12-09T17:45:04.041Z,93728.66
2022-12-09T17:47:37.079Z,93728.63
2022-12-09T17:50:23.928Z,93732.00
2022-12-09T17:52:57.002Z,93726.09
2022-12-09T17:55:46.914Z,93727.78
2022-12-09T17:58:28.919Z,93723.59
2022-12-09T18:01:30.947Z,93721.91
2022-12-09T18:04:17.922Z,93710.97
2022-12-09T18:06:52.009Z,93713.50
2022-12-09T18:09:38.936Z,93708.47
2022-12-09T18:12:18.920Z,93704.28
2022-12-09T18:15:12.930Z,93697.56
2022-12-09T18:18:06.942Z,93693.34
2022-12-09T18:21:00.928Z,93695.03
2022-12-09T18:23:47.933Z,93689.13
2022-12-09T18:26:35.283Z,93684.13
2022-12-09T18:29:24.969Z,93680.72
2022-12-09T18:32:00.006Z,93682.41
2022-12-09T18:34:46.931Z,93684.09
2022-12-09T18:37:20.133Z,93679.91
2022-12-09T18:40:07.188Z,93678.22
2022-12-09T18:42:47.928Z,93685.78
2022-12-09T18:45:34.927Z,93674.00
2022-12-09T18:48:08.111Z,93674.84
2022-12-09T18:50:54.939Z,93678.19
2022-12-09T18:53:27.982Z,93677.34
2022-12-09T18:56:14.913Z,93668.97
2022-12-09T18:59:06.363Z,93661.41
2022-12-09T19:01:50.076Z,93663.09
2022-12-09T19:04:32.086Z,93667.31
2022-12-09T19:07:11.984Z,93663.09
2022-12-09T19:09:52.004Z,93657.19
2022-12-09T19:12:47.020Z,93653.84
2022-12-09T19:15:27.074Z,93659.72
2022-12-09T19:18:06.931Z,93657.19
2022-12-09T19:20:48.215Z,93659.72
2022-12-09T19:23:27.978Z,93656.34
2022-12-09T19:26:08.026Z,93656.34
2022-12-09T19:28:56.262Z,93644.63
2022-12-09T19:31:40.152Z,93634.50
2022-12-09T19:34:19.999Z,93639.53
2022-12-09T19:37:07.976Z,93633.63
2022-12-09T19:39:43.247Z,93632.81
2022-12-09T19:42:32.344Z,93627.75
2022-12-09T19:45:09.048Z,93627.75
2022-12-09T19:47:58.964Z,93627.75
2022-12-09T19:50:32.072Z,93621.03
2022-12-09T19:53:18.963Z,93616.84
2022-12-09T19:55:58.971Z,93612.59
2022-12-09T19:58:56.268Z,93611.78
2022-12-09T20:01:50.385Z,93609.28
2022-12-09T20:07:34.950Z,93605.06
2022-12-09T20:10:08.243Z,93600.88
2022-12-09T20:12:54.964Z,93602.56
2022-12-09T20:15:28.048Z,93595.00
2022-12-09T20:18:15.990Z,93589.13
2022-12-09T20:20:55.984Z,93582.34
2022-12-09T20:23:51.006Z,93579.00
2022-12-09T20:26:40.944Z,93583.22
2022-12-09T20:29:17.066Z,93579.00
2022-12-09T20:32:06.310Z,93575.66
2022-12-09T20:35:08.042Z,93568.91
2022-12-09T20:38:01.977Z,93572.28
2022-12-09T20:40:48.955Z,93564.72
2022-12-09T20:43:22.048Z,93571.44
2022-12-09T20:46:12.028Z,93563.03
2022-12-09T20:48:46.067Z,93552.94
2022-12-09T20:51:38.981Z,93547.06
2022-12-09T20:54:13.215Z,93546.22
2022-12-09T20:56:59.981Z,93546.22
2022-12-09T20:59:33.311Z,93536.97
2022-12-09T21:02:21.003Z,93530.25
2022-12-09T21:04:54.091Z,93521.03
2022-12-09T21:07:41.075Z,93526.06
2022-12-09T21:10:15.474Z,93527.75
2022-12-09T21:13:01.976Z,93522.72
2022-12-09T21:15:38.385Z,93515.16
2022-12-09T21:18:24.983Z,93505.03
2022-12-09T21:21:04.995Z,93507.56
2022-12-09T21:24:00.982Z,93512.59
2022-12-09T21:26:47.983Z,93517.63
2022-12-09T21:29:32.222Z,93515.13
2022-12-09T21:32:18.983Z,93514.28
2022-12-09T21:34:52.125Z,93513.44
2022-12-09T21:37:39.008Z,93516.81
2022-12-09T21:40:13.104Z,93510.94
2022-12-09T21:42:59.980Z,93512.59
2022-12-09T21:45:33.083Z,93506.72
2022-12-09T21:48:19.975Z,93516.81
2022-12-09T21:51:00.077Z,93505.03
2022-12-09T21:53:47.992Z,93515.09
2022-12-09T21:56:28.990Z,93511.75
2022-12-09T21:59:24.021Z,93513.41
2022-12-09T22:02:18.012Z,93517.63
2022-12-09T22:05:05.042Z,93517.63
2022-12-09T22:07:38.144Z,93510.91
2022-12-09T22:10:24.992Z,93507.53
2022-12-09T22:12:58.079Z,93506.69
2022-12-09T22:15:45.004Z,93508.38
2022-12-09T22:18:18.067Z,93493.25
2022-12-09T22:21:26.593Z,93494.94
2022-12-09T22:24:11.988Z,93489.03
2022-12-09T22:26:59.003Z,93488.19
2022-12-09T22:29:38.987Z,93487.38
2022-12-09T22:32:37.796Z,93492.41
2022-12-09T22:35:33.995Z,93481.47
2022-12-09T22:38:28.043Z,93491.56
2022-12-09T22:41:26.992Z,93484.00
2022-12-09T22:44:20.990Z,93486.50
2022-12-09T22:47:15.019Z,93489.03
2022-12-09T22:50:02.000Z,93483.16
2022-12-09T22:52:36.096Z,93480.66
2022-12-09T22:55:23.009Z,93478.13
2022-12-09T22:57:57.093Z,93478.13
2022-12-09T23:00:44.016Z,93467.16
2022-12-09T23:03:18.114Z,93474.72
2022-12-09T23:06:08.020Z,93457.94
2022-12-09T23:08:49.003Z,93468.00
2022-12-09T23:11:36.022Z,93460.44
2022-12-09T23:14:16.038Z,93450.34
2022-12-09T23:17:10.007Z,93443.66
2022-12-09T23:19:57.003Z,93449.50
2022-12-09T23:22:37.004Z,93444.47
2022-12-09T23:25:31.024Z,93442.78
2022-12-09T23:28:25.026Z,93441.09
2022-12-09T23:31:21.091Z,93441.91
2022-12-09T23:34:16.020Z,93442.75
2022-12-09T23:37:03.034Z,93446.13
2022-12-09T23:39:36.176Z,93446.13
2022-12-09T23:42:23.012Z,93446.13
2022-12-09T23:45:03.038Z,93445.25
2022-12-09T23:47:57.021Z,93448.59
2022-12-09T23:50:44.038Z,93441.84
2022-12-09T23:53:17.084Z,93440.19
2022-12-09T23:56:04.096Z,93433.50
2022-12-09T23:58:37.104Z,93432.66
